Time;durP1;ratioP1;P1;durP2;ratioP2;P2;SDS_P1;SDS_P2;PMS_P1;PMS_P2;Temp;Humidity;BMP_temperature;BMP_pressure;BME280_temperature;BME280_humidity;BME280_pressure;Samples;Min_cycle;Max_cycle;Signal;HPM_P1;HPM_P2
2023/04/15 00:00:36;;;;;;;8.63;3.53;;;;;;;;;;5024205;28;20034;-83
2023/04/15 00:03:02;;;;;;;7.68;3.92;;;;;;;;;;5021516;28;20034;-82
2023/04/15 00:05:32;;;;;;;8.77;3.55;;;;;;;;;;5019461;28;20025;-83
2023/04/15 00:07:58;;;;;;;9.07;3.97;;;;;;;;;;5019303;28;20042;-84
2023/04/15 00:10:25;;;;;;;8.60;3.20;;;;;;;;;;5018657;28;20425;-84
2023/04/15 00:12:51;;;;;;;10.32;3.08;;;;;;;;;;5016368;28;20554;-82
2023/04/15 00:15:18;;;;;;;6.43;3.13;;;;;;;;;;5010194;28;20095;-85
2023/04/15 00:17:43;;;;;;;6.65;3.22;;;;;;;;;;5022373;28;20030;-83
2023/04/15 00:20:10;;;;;;;7.95;3.08;;;;;;;;;;5033746;28;20026;-80
2023/04/15 00:22:36;;;;;;;7.50;3.22;;;;;;;;;;5020058;28;20038;-84
2023/04/15 00:25:02;;;;;;;7.15;3.05;;;;;;;;;;5021891;28;20030;-83
2023/04/15 00:27:31;;;;;;;7.68;3.45;;;;;;;;;;5013923;28;20038;-85
2023/04/15 00:29:57;;;;;;;8.15;3.35;;;;;;;;;;5014029;28;20073;-86
2023/04/15 00:32:23;;;;;;;8.65;3.63;;;;;;;;;;5022729;28;20030;-85
2023/04/15 00:34:49;;;;;;;6.90;2.92;;;;;;;;;;5027101;28;20065;-85
2023/04/15 00:37:15;;;;;;;6.30;2.50;;;;;;;;;;5020159;28;20049;-84
2023/04/15 00:39:41;;;;;;;6.97;3.38;;;;;;;;;;5017876;28;20502;-83
2023/04/15 00:42:08;;;;;;;6.95;2.55;;;;;;;;;;5018994;28;20018;-83
2023/04/15 00:44:34;;;;;;;6.93;2.63;;;;;;;;;;5019519;28;20121;-83
2023/04/15 00:47:01;;;;;;;13.60;3.47;;;;;;;;;;5032438;28;20454;-82
2023/04/15 00:49:28;;;;;;;6.15;2.80;;;7.10;99.90;;;;;;5020158;28;20121;-84
2023/04/15 00:51:54;;;;;;;7.78;3.35;;;;;;;;;;5018618;28;20034;-83
2023/04/15 00:54:21;;;;;;;7.20;3.10;;;;;;;;;;5019566;28;20045;-80
2023/04/15 00:56:49;;;;;;;10.10;3.22;;;;;;;;;;5023316;28;20433;-87
2023/04/15 00:59:17;;;;;;;8.43;3.50;;;;;;;;;;5017613;28;20034;-80
2023/04/15 01:01:43;;;;;;;7.05;2.80;;;;;;;;;;5019548;28;20080;-84
2023/04/15 01:04:11;;;;;;;7.60;2.85;;;;;;;;;;5021254;28;20034;-86
2023/04/15 01:06:37;;;;;;;6.38;3.20;;;;;;;;;;5019914;28;20034;-83
2023/04/15 01:09:03;;;;;;;6.90;2.70;;;;;;;;;;5018397;28;20034;-86
2023/04/15 01:11:29;;;;;;;6.75;3.13;;;;;;;;;;5019922;28;20030;-85
2023/04/15 01:13:56;;;;;;;10.93;3.25;;;;;;;;;;5024596;28;20030;-85
2023/04/15 01:16:22;;;;;;;7.70;2.90;;;;;;;;;;5026843;28;20113;-87
2023/04/15 01:18:48;;;;;;;8.07;2.95;;;;;;;;;;5019222;28;20049;-85
2023/04/15 01:21:14;;;;;;;7.80;3.30;;;;;;;;;;5006893;28;20054;-87
2023/04/15 01:23:41;;;;;;;8.23;3.22;;;;;;;;;;5018978;28;20034;-82
2023/04/15 01:26:08;;;;;;;8.35;3.30;;;;;;;;;;5012400;28;20402;-84
2023/04/15 01:28:35;;;;;;;8.70;3.50;;;;;;;;;;5027599;28;20025;-83
2023/04/15 01:31:11;;;;;;;9.07;4.13;;;;;;;;;;5016342;28;20034;-86
2023/04/15 01:33:40;;;;;;;8.93;4.03;;;;;;;;;;5014796;28;20044;-86
2023/04/15 01:36:07;;;;;;;5.78;3.03;;;;;;;;;;5017192;28;20038;-87
2023/04/15 01:38:33;;;;;;;8.18;3.55;;;;;;;;;;5018463;28;20027;-86
2023/04/15 01:41:00;;;;;;;8.10;3.58;;;;;;;;;;5032908;28;20052;-86
2023/04/15 01:43:27;;;;;;;8.73;3.50;;;;;;;;;;5028328;28;20033;-85
2023/04/15 01:45:53;;;;;;;11.30;4.00;;;;;;;;;;5022344;28;20048;-87
2023/04/15 01:48:19;;;;;;;9.57;3.92;;;;;;;;;;5011319;28;20030;-84
2023/04/15 01:50:45;;;;;;;8.73;3.20;;;;;;;;;;5019254;28;20065;-86
2023/04/15 01:53:11;;;;;;;8.48;3.00;;;;;;;;;;5017416;28;20030;-86
2023/04/15 01:55:38;;;;;;;8.98;3.05;;;;;;;;;;5019094;28;20133;-87
2023/04/15 01:58:04;;;;;;;6.80;2.63;;;;;;;;;;5016290;28;20053;-86
2023/04/15 02:00:31;;;;;;;7.40;3.15;;;;;;;;;;5016669;28;20029;-86
2023/04/15 02:02:58;;;;;;;9.48;3.15;;;;;;;;;;5019660;28;20078;-89
2023/04/15 02:05:24;;;;;;;6.85;2.95;;;;;;;;;;5025815;28;20037;-88
2023/04/15 02:07:50;;;;;;;6.65;3.17;;;;;;;;;;5000887;28;20026;-87
2023/04/15 02:10:16;;;;;;;6.47;3.17;;;;;;;;;;5012804;28;20097;-83
2023/04/15 02:12:42;;;;;;;6.88;2.67;;;;;;;;;;5021115;28;20198;-84
2023/04/15 02:15:09;;;;;;;6.78;3.22;;;;;;;;;;5014042;28;20434;-88
2023/04/15 02:17:36;;;;;;;11.05;3.22;;;;;;;;;;5018829;28;20018;-86
2023/04/15 02:20:03;;;;;;;10.20;3.90;;;;;;;;;;5012534;28;20040;-84
2023/04/15 02:22:30;;;;;;;6.13;3.25;;;;;;;;;;5017514;28;20032;-84
2023/04/15 02:24:56;;;;;;;8.00;3.30;;;;;;;;;;5010408;28;20026;-84
2023/04/15 02:27:22;;;;;;;11.48;3.88;;;;;;;;;;5014378;28;20097;-84
2023/04/15 02:29:50;;;;;;;11.57;3.33;;;;;;;;;;5014732;28;20049;-85
2023/04/15 02:32:16;;;;;;;7.65;3.17;;;;;;;;;;5015923;28;20041;-83
2023/04/15 02:34:42;;;;;;;7.50;3.28;;;;;;;;;;5028965;28;20022;-85
2023/04/15 02:37:11;;;;;;;8.13;2.95;;;;;;;;;;5012398;28;20041;-85
2023/04/15 02:39:37;;;;;;;5.18;2.65;;;;;;;;;;5019162;28;20083;-83
2023/04/15 02:42:04;;;;;;;9.43;3.15;;;;;;;;;;5017014;28;20036;-86
2023/04/15 02:44:31;;;;;;;6.15;2.85;;;;;;;;;;5015257;28;20037;-85
2023/04/15 02:46:57;;;;;;;10.02;3.13;;;;;;;;;;5015926;28;20034;-85
2023/04/15 02:49:24;;;;;;;9.23;3.47;;;;;;;;;;5009374;28;20030;-81
2023/04/15 02:51:50;;;;;;;9.13;2.85;;;;;;;;;;5012906;28;20026;-84
2023/04/15 02:54:21;;;;;;;5.53;2.90;;;;;;;;;;5013019;28;20058;-86
2023/04/15 02:56:47;;;;;;;;;;;6.20;99.90;;;;;;5018267;28;20040;-84
2023/04/15 02:59:13;;;;;;;12.20;3.80;;;;;;;;;;5020674;28;19992;-81
2023/04/15 03:01:39;;;;;;;9.02;3.40;;;;;;;;;;5012140;28;20033;-86
2023/04/15 03:04:07;;;;;;;9.02;3.15;;;;;;;;;;5019395;28;20022;-86
2023/04/15 03:06:33;;;;;;;7.40;2.80;;;;;;;;;;5047681;22;20029;-87
2023/04/15 03:09:00;;;;;;;7.88;2.90;;;;;;;;;;5013973;28;20086;-89
2023/04/15 03:11:27;;;;;;;8.30;2.85;;;;;;;;;;5015393;28;20032;-86
2023/04/15 03:13:53;;;;;;;8.48;3.45;;;;;;;;;;5017619;28;20023;-86
2023/04/15 03:16:21;;;;;;;8.25;2.85;;;;;;;;;;5013601;28;20097;-85
2023/04/15 03:18:47;;;;;;;14.15;3.42;;;;;;;;;;5010243;28;20024;-85
2023/04/15 03:21:13;;;;;;;8.45;3.22;;;;;;;;;;5007224;28;20030;-87
2023/04/15 03:23:39;;;;;;;11.10;3.20;;;;;;;;;;5009445;28;20015;-86
2023/04/15 03:26:05;;;;;;;8.35;3.42;;;;;;;;;;5012847;28;20151;-86
2023/04/15 03:28:31;;;;;;;8.52;3.70;;;;;;;;;;5011663;28;20041;-87
2023/04/15 03:30:57;;;;;;;9.80;3.60;;;;;;;;;;5017589;28;20026;-86
2023/04/15 03:33:23;;;;;;;8.18;3.47;;;;;;;;;;5010091;28;20023;-88
2023/04/15 03:35:50;;;;;;;8.20;3.35;;;;;;;;;;5009158;28;20030;-87
2023/04/15 03:38:16;;;;;;;8.13;3.08;;;;;;;;;;5015942;28;20023;-86
2023/04/15 03:40:42;;;;;;;11.95;3.55;;;;;;;;;;5012020;28;20033;-87
2023/04/15 03:43:08;;;;;;;8.40;3.65;;;;;;;;;;5006968;28;20624;-86
2023/04/15 03:45:35;;;;;;;9.82;3.70;;;;;;;;;;5009173;28;20046;-84
2023/04/15 03:48:01;;;;;;;6.45;3.03;;;;;;;;;;5012298;28;20035;-88
2023/04/15 03:50:27;;;;;;;5.95;2.88;;;;;;;;;;5010506;28;20041;-88
2023/04/15 03:52:53;;;;;;;8.90;2.72;;;;;;;;;;5011739;28;20018;-87
2023/04/15 03:55:19;;;;;;;6.15;2.75;;;;;;;;;;5010852;28;20045;-86
2023/04/15 03:57:45;;;;;;;5.78;2.60;;;;;;;;;;5011931;28;20508;-88
2023/04/15 04:00:11;;;;;;;9.40;3.60;;;;;;;;;;5011245;28;20034;-87
2023/04/15 04:02:37;;;;;;;7.82;2.63;;;;;;;;;;5016024;28;20026;-89
2023/04/15 04:05:04;;;;;;;9.48;2.92;;;;;;;;;;5013363;28;20034;-89
2023/04/15 04:07:30;;;;;;;9.32;4.07;;;;;;;;;;5012899;28;20058;-86
2023/04/15 04:09:57;;;;;;;7.75;2.88;;;;;;;;;;5013510;28;20038;-87
2023/04/15 04:12:23;;;;;;;6.80;2.65;;;;;;;;;;5015222;28;20539;-86
2023/04/15 04:14:49;;;;;;;7.40;2.85;;;;;;;;;;5007020;28;20035;-85
2023/04/15 04:17:15;;;;;;;5.90;3.17;;;;;;;;;;4998792;28;20031;-88
2023/04/15 04:19:41;;;;;;;7.28;2.90;;;;;;;;;;5009040;28;20030;-87
2023/04/15 04:22:07;;;;;;;7.78;3.00;;;;;;;;;;5012777;28;20044;-87
2023/04/15 04:24:33;;;;;;;9.00;3.35;;;;;;;;;;4996759;28;20050;-87
2023/04/15 04:26:59;;;;;;;6.88;2.90;;;;;;;;;;5012139;28;20045;-85
2023/04/15 04:29:25;;;;;;;6.65;2.88;;;;;;;;;;5014178;28;20057;-85
2023/04/15 04:31:51;;;;;;;6.95;2.75;;;;;;;;;;5005954;28;20027;-84
2023/04/15 04:34:17;;;;;;;8.27;3.50;;;;;;;;;;5013116;28;20064;-84
2023/04/15 04:36:43;;;;;;;8.05;3.03;;;;;;;;;;5006835;28;20053;-84
2023/04/15 04:39:12;;;;;;;9.07;3.35;;;;;;;;;;5006278;28;20095;-85
2023/04/15 04:41:38;;;;;;;8.93;3.30;;;;;;;;;;5012210;28;20038;-85
2023/04/15 04:44:04;;;;;;;9.32;3.25;;;;;;;;;;5002869;28;20080;-86
2023/04/15 04:46:30;;;;;;;7.18;2.83;;;;;;;;;;5010173;28;20356;-88
2023/04/15 04:48:56;;;;;;;5.90;2.78;;;;;;;;;;5005215;28;20046;-87
2023/04/15 04:51:22;;;;;;;11.57;3.28;;;;;;;;;;5006969;28;20025;-86
2023/04/15 04:53:48;;;;;;;9.88;2.97;;;;;;;;;;5007584;28;20042;-89
2023/04/15 04:56:14;;;;;;;9.15;3.50;;;;;;;;;;4993310;28;20053;-89
2023/04/15 04:58:41;;;;;;;7.32;2.80;;;;;;;;;;5010992;28;20015;-87
2023/04/15 05:01:07;;;;;;;9.18;3.20;;;;;;;;;;5006148;28;20014;-89
2023/04/15 05:03:33;;;;;;;7.30;2.70;;;;;;;;;;5010848;28;20014;-87
2023/04/15 05:06:01;;;;;;;5.88;3.28;;;;;;;;;;5006888;28;20035;-88
2023/04/15 05:08:27;;;;;;;8.77;3.53;;;;;;;;;;5010819;28;20098;-87
2023/04/15 05:10:53;;;;;;;8.15;3.10;;;;;;;;;;5007123;28;20031;-89
2023/04/15 05:13:22;;;;;;;8.48;3.15;;;;;;;;;;5006333;28;20033;-85
2023/04/15 05:15:48;;;;;;;9.50;3.25;;;;;;;;;;5025639;28;20085;-88
2023/04/15 05:18:14;;;;;;;5.57;2.97;;;;;;;;;;5007022;28;20070;-89
2023/04/15 05:20:40;;;;;;;7.10;2.90;;;;;;;;;;5009057;28;20046;-86
2023/04/15 05:23:06;;;;;;;8.48;3.10;;;;;;;;;;5007802;28;20019;-85
2023/04/15 05:25:32;;;;;;;9.45;3.47;;;;;;;;;;5007005;28;20034;-87
2023/04/15 05:27:59;;;;;;;6.40;3.42;;;;;;;;;;5010490;28;20031;-86
2023/04/15 05:30:28;;;;;;;6.10;3.03;;;;;;;;;;5012788;28;20042;-88
2023/04/15 05:32:54;;;;;;;11.60;4.75;;;;;;;;;;5007667;28;20021;-89
2023/04/15 05:35:20;;;;;;;14.55;3.83;;;;;;;;;;5013751;28;20046;-88
2023/04/15 05:37:46;;;;;;;9.30;3.97;;;;;;;;;;5003946;28;20018;-87
2023/04/15 05:40:15;;;;;;;8.00;3.58;;;;;;;;;;5011803;28;20041;-88
2023/04/15 05:42:41;;;;;;;8.23;3.40;;;;;;;;;;5018008;28;20041;-89
2023/04/15 05:45:08;;;;;;;11.10;4.40;;;;;;;;;;5008625;28;20018;-89
2023/04/15 05:47:36;;;;;;;8.50;3.53;;;;;;;;;;5005117;28;20034;-88
2023/04/15 05:50:02;;;;;;;9.35;3.53;;;;;;;;;;5006175;28;20025;-86
2023/04/15 05:52:28;;;;;;;8.48;3.45;;;;;;;;;;5013692;28;20014;-87
2023/04/15 05:54:54;;;;;;;10.45;3.80;;;;;;;;;;5016198;28;20031;-88
2023/04/15 05:57:23;;;;;;;10.32;4.05;;;;;;;;;;5007582;28;20037;-89
2023/04/15 05:59:51;;;;;;;7.78;3.42;;;;;;;;;;5011167;28;20086;-88
2023/04/15 06:02:18;;;;;;;8.52;3.42;;;;;;;;;;5013030;28;20014;-89
2023/04/15 06:04:44;;;;;;;6.85;3.15;;;;;;;;;;5015996;28;20006;-88
2023/04/15 06:07:10;;;;;;;10.00;3.85;;;;;;;;;;5010080;28;20028;-89
2023/04/15 06:09:36;;;;;;;5.43;3.10;;;;;;;;;;5012834;28;20041;-88
2023/04/15 06:12:02;;;;;;;8.50;3.40;;;;;;;;;;5014015;28;20069;-87
2023/04/15 06:14:28;;;;;;;10.43;4.10;;;;;;;;;;5015276;28;20062;-89
2023/04/15 06:16:54;;;;;;;11.32;5.55;;;;;;;;;;5014347;28;20057;-89
2023/04/15 06:19:20;;;;;;;11.23;4.22;;;;;;;;;;5018337;28;20027;-87
2023/04/15 06:26:51;;;;;;;7.97;3.72;;;6.60;99.90;;;;;;5033949;28;20046;-84
2023/04/15 06:29:17;;;;;;;7.72;3.70;;;;;;;;;;4997956;28;20026;-84
2023/04/15 06:31:43;;;;;;;10.07;3.88;;;;;;;;;;5003767;28;20019;-86
2023/04/15 06:34:15;;;;;;;9.23;4.00;;;;;;;;;;4998685;28;20022;-85
2023/04/15 06:36:42;;;;;;;7.15;3.28;;;6.90;99.90;;;;;;4993188;28;20026;-86
2023/04/15 06:39:10;;;;;;;21.42;11.20;;;7.00;99.90;;;;;;4999246;28;20049;-87
2023/04/15 06:45:39;;;;;;;8.48;4.10;;;7.20;99.90;;;;;;5013050;28;20033;-87
2023/04/15 06:54:53;;;;;;;11.18;3.22;;;;;;;;;;4982740;28;20105;-86
2023/04/15 06:58:25;;;;;;;5.40;2.67;;;7.70;99.90;;;;;;4946062;28;20031;-87
2023/04/15 07:01:40;;;;;;;5.75;2.88;;;;;;;;;;4978847;28;20035;-85
2023/04/15 07:05:03;;;;;;;8.13;3.20;;;8.10;99.90;;;;;;4948092;28;20031;-85
2023/04/15 09:42:25;;;;;;;4.30;1.70;;;;;;;;;;5058899;28;20060;-86
2023/04/15 09:45:06;;;;;;;4.20;1.30;;;16.50;76.20;;;;;;5058853;28;20071;-84
2023/04/15 09:47:34;;;;;;;4.32;1.30;;;;;;;;;;5052573;28;20024;-87
2023/04/15 09:50:56;;;;;;;3.60;1.42;;;16.60;71.40;;;;;;5022658;28;20398;-86
2023/04/15 09:54:31;;;;;;;4.40;1.23;;;16.50;71.50;;;;;;5040611;28;20202;-87
2023/04/15 09:57:24;;;;;;;5.63;1.40;;;16.60;70.90;;;;;;5038472;28;20402;-85
2023/04/15 10:00:17;;;;;;;3.53;0.90;;;16.80;68.70;;;;;;5006411;28;20052;-87
2023/04/15 10:02:50;;;;;;;5.88;1.60;;;16.90;68.10;;;;;;5019196;28;20170;-87
2023/04/15 10:05:16;;;;;;;;;;;16.90;68.70;;;;;;5022002;28;20030;-88
2023/04/15 10:07:42;;;;;;;5.55;1.65;;;;;;;;;;5050783;28;19909;-86
2023/04/15 10:10:09;;;;;;;2.63;0.90;;;;;;;;;;5054329;28;20029;-86
2023/04/15 10:12:36;;;;;;;2.15;1.10;;;16.50;62.60;;;;;;5038190;28;20021;-84
2023/04/15 10:15:03;;;;;;;3.88;1.52;;;;;;;;;;5038255;28;20040;-87
2023/04/15 10:17:35;;;;;;;4.03;1.00;;;16.10;61.60;;;;;;5038697;28;20037;-87
2023/04/15 10:20:03;;;;;;;2.97;0.95;;;15.80;63.20;;;;;;5037525;28;20087;-84
2023/04/15 10:22:30;;;;;;;6.97;1.27;;;;;;;;;;5037677;28;20021;-86
2023/04/15 10:24:56;;;;;;;2.40;1.00;;;;;;;;;;5035806;28;20490;-85
2023/04/15 10:27:23;;;;;;;6.10;1.77;;;;;;;;;;5036091;28;20056;-89
2023/04/15 10:29:50;;;;;;;3.38;1.30;;;;;;;;;;5037464;28;20053;-87
2023/04/15 10:32:24;;;;;;;6.05;1.30;;;15.50;63.10;;;;;;5036389;28;20099;-85
2023/04/15 10:34:51;;;;;;;1.80;0.80;;;;;;;;;;5036587;28;20026;-84
2023/04/15 10:37:36;;;;;;;3.25;1.00;;;16.20;61.50;;;;;;5035475;28;20619;-85
2023/04/15 10:40:30;;;;;;;3.97;1.23;;;16.80;69.20;;;;;;5031931;28;20385;-87
2023/04/15 10:42:56;;;;;;;3.00;1.23;;;;;;;;;;5019818;28;20037;-86
2023/04/15 10:45:26;;;;;;;3.00;1.02;;;16.70;60.70;;;;;;5035890;28;20132;-87
2023/04/15 10:47:55;;;;;;;4.22;1.27;;;16.80;62.20;;;;;;5037571;28;20049;-87
2023/04/15 10:50:21;;;;;;;4.80;1.27;;;;;;;;;;5036537;28;20025;-87
2023/04/15 10:52:53;;;;;;;4.20;1.60;;;;;;;;;;5036892;28;20481;-87
2023/04/15 10:55:20;;;;;;;3.72;1.50;;;;;;;;;;5037727;28;20056;-88
2023/04/15 10:57:46;;;;;;;6.00;1.40;;;;;;;;;;5039045;28;20682;-87
2023/04/15 11:00:15;;;;;;;4.32;1.30;;;17.40;61.30;;;;;;5036671;28;20026;-87
2023/04/15 11:02:41;;;;;;;5.13;1.42;;;;;;;;;;5022741;28;20059;-85
2023/04/15 11:05:07;;;;;;;3.53;1.20;;;;;;;;;;5038004;28;20033;-87
2023/04/15 11:07:40;;;;;;;4.15;1.73;;;17.50;61.50;;;;;;5036773;28;20111;-89
2023/04/15 11:10:19;;;;;;;5.20;2.08;;;;;;;;;;5036186;28;20025;-88
2023/04/15 11:12:49;;;;;;;4.47;1.65;;;17.70;60.70;;;;;;5036589;28;20032;-86
2023/04/15 11:15:30;;;;;;;3.83;1.50;;;;;;;;;;5036614;28;20141;-85
2023/04/15 11:17:57;;;;;;;4.40;1.90;;;17.90;60.10;;;;;;5038585;28;20762;-84
2023/04/15 11:20:24;;;;;;;4.80;1.52;;;;;;;;;;5038465;28;20029;-86
2023/04/15 11:22:51;;;;;;;3.78;1.30;;;18.20;59.90;;;;;;5040982;28;20125;-87
2023/04/15 11:25:25;;;;;;;3.25;1.20;;;18.00;58.70;;;;;;5040038;28;20045;-88
2023/04/15 11:27:53;;;;;;;2.53;1.20;;;;;;;;;;5040333;28;20481;-87
2023/04/15 11:30:29;;;;;;;5.97;1.80;;;;;;;;;;5041831;28;20036;-88
2023/04/15 11:32:57;;;;;;;3.38;1.38;;;17.60;60.80;;;;;;5039553;28;20029;-87
2023/04/15 11:35:24;;;;;;;3.25;1.02;;;;;;;;;;5040502;28;20053;-88
2023/04/15 11:37:50;;;;;;;2.58;1.17;;;;;;;;;;5041354;28;20024;-88
2023/04/15 11:40:17;;;;;;;5.68;1.65;;;;;;;;;;5039981;28;20175;-87
2023/04/15 11:42:46;;;;;;;4.85;1.35;;;;;;;;;;5042590;28;20029;-88
2023/04/15 11:45:13;;;;;;;4.30;1.10;;;17.30;59.00;;;;;;5043164;28;20087;-87
2023/04/15 11:47:42;;;;;;;3.63;1.20;;;;;;;;;;5053247;28;20029;-86
2023/04/15 11:50:18;;;;;;;3.30;1.30;;;;;;;;;;5063959;28;20074;-87
2023/04/15 11:52:58;;;;;;;5.53;1.60;;;17.40;59.50;;;;;;5061588;28;20035;-89
2023/04/15 11:55:25;;;;;;;6.93;1.50;;;;;;;;;;5061583;28;20025;-88
2023/04/15 11:58:16;;;;;;;1.85;1.00;;;17.30;60.60;;;;;;5061328;28;20025;-86
2023/04/15 12:00:57;;;;;;;4.07;1.40;;;;;;;;;;5047825;28;20089;-88
2023/04/15 12:03:37;;;;;;;3.75;1.60;;;;;;;;;;5039972;28;20116;-88
2023/04/15 12:06:11;;;;;;;6.13;1.88;;;;;;;;;;5039009;28;20052;-87
2023/04/15 12:08:49;;;;;;;2.45;1.10;;;;;;;;;;5040275;28;20108;-86
2023/04/15 12:11:16;;;;;;;5.15;1.25;;;;;;;;;;5040496;28;20044;-88
2023/04/15 12:13:53;;;;;;;4.30;1.50;;;;;;;;;;5040029;28;20091;-88
2023/04/15 12:16:19;;;;;;;5.40;1.52;;;;;;;;;;5040170;28;20029;-88
2023/04/15 12:18:56;;;;;;;3.92;1.40;;;17.80;59.30;;;;;;5040022;28;20032;-89
2023/04/15 12:21:24;;;;;;;3.03;1.10;;;17.90;58.80;;;;;;5040610;28;20118;-87
2023/04/15 12:23:54;;;;;;;6.10;1.77;;;17.70;58.80;;;;;;5039155;28;20039;-86
2023/04/15 12:26:27;;;;;;;;;;;17.80;58.90;;;;;;5040258;28;20025;-86
2023/04/15 12:29:05;;;;;;;6.10;1.70;;;17.60;59.00;;;;;;5039328;28;19912;-87
2023/04/15 12:31:32;;;;;;;5.57;1.30;;;17.50;65.80;;;;;;5037400;28;20437;-88
2023/04/15 12:34:02;;;;;;;4.70;1.60;;;;;;;;;;5041266;28;20025;-88
2023/04/15 12:36:30;;;;;;;4.05;1.33;;;;;;;;;;5047674;28;20030;-86
2023/04/15 12:38:59;;;;;;;6.60;1.50;;;;;;;;;;5052074;28;20286;-87
2023/04/15 12:41:25;;;;;;;2.28;1.13;;;;;;;;;;5050572;28;20025;-87
2023/04/15 12:43:51;;;;;;;6.90;1.95;;;;;;;;;;5050914;28;20059;-88
2023/04/15 12:46:18;;;;;;;2.28;0.90;;;;;;;;;;5048938;28;20473;-88
2023/04/15 12:48:46;;;;;;;4.53;1.27;;;;;;;;;;5040017;28;20025;-83
2023/04/15 12:51:12;;;;;;;3.15;1.05;;;;;;;;;;5035090;28;20057;-87
2023/04/15 12:53:38;;;;;;;3.97;1.10;;;;;;;;;;5030817;28;20025;-83
2023/04/15 12:56:05;;;;;;;2.35;1.10;;;;;;;;;;5030429;28;20110;-81
2023/04/15 12:58:31;;;;;;;2.88;0.98;;;;;;;;;;5031199;28;20022;-87
2023/04/15 13:00:57;;;;;;;3.95;1.30;;;;;;;;;;5029636;28;20036;-87
2023/04/15 13:03:26;;;;;;;3.10;1.20;;;;;;;;;;5026057;28;20037;-87
2023/04/15 13:05:52;;;;;;;5.88;1.35;;;;;;;;;;5029331;28;20040;-84
2023/04/15 13:08:18;;;;;;;4.75;1.35;;;;;;;;;;5029302;28;20033;-80
2023/04/15 13:10:44;;;;;;;5.32;1.45;;;;;;;;;;5026774;28;20097;-85
2023/04/15 13:13:10;;;;;;;4.00;1.38;;;;;;;;;;5024392;28;20124;-84
2023/04/15 13:15:37;;;;;;;5.10;1.58;;;;;;;;;;5035857;28;20108;-85
2023/04/15 13:18:03;;;;;;;4.82;1.52;;;;;;;;;;5042244;28;20106;-81
2023/04/15 13:20:30;;;;;;;5.95;3.00;;;;;;;;;;5044012;28;20073;-84
2023/04/15 13:22:56;;;;;;;3.70;1.40;;;;;;;;;;5037886;28;20048;-85
2023/04/15 13:25:22;;;;;;;5.45;1.52;;;;;;;;;;5041250;28;20478;-85
2023/04/15 13:27:48;;;;;;;6.18;2.28;;;;;;;;;;5043261;28;20029;-84
2023/04/15 13:30:14;;;;;;;9.52;2.22;;;;;;;;;;5047675;28;20025;-86
2023/04/15 13:32:43;;;;;;;4.70;1.40;;;;;;;;;;5040837;28;20030;-85
2023/04/15 13:35:09;;;;;;;3.83;1.45;;;;;;;;;;5039511;28;20041;-85
2023/04/15 13:37:35;;;;;;;3.35;1.35;;;;;;;;;;5035808;28;20034;-84
2023/04/15 13:40:01;;;;;;;5.10;1.60;;;;;;;;;;5037786;28;20049;-84
2023/04/15 13:42:27;;;;;;;3.92;1.40;;;;;;;;;;5041232;28;20036;-84
2023/04/15 13:44:53;;;;;;;2.95;1.30;;;;;;;;;;5037169;28;20029;-85
2023/04/15 13:47:20;;;;;;;2.15;0.90;;;;;;;;;;5036713;28;20482;-84
2023/04/15 13:49:46;;;;;;;3.33;1.40;;;;;;;;;;5030828;28;20085;-86
2023/04/15 13:52:12;;;;;;;3.80;1.15;;;;;;;;;;5038981;28;20042;-83
2023/04/15 13:54:38;;;;;;;4.10;1.30;;;;;;;;;;5042808;28;20198;-85
2023/04/15 13:57:05;;;;;;;3.20;1.42;;;;;;;;;;5034927;28;20033;-85
2023/04/15 13:59:31;;;;;;;3.85;1.20;;;;;;;;;;5038844;28;20060;-83
2023/04/15 14:01:57;;;;;;;2.78;1.27;;;;;;;;;;5041014;28;20037;-86
2023/04/15 14:04:23;;;;;;;2.55;1.15;;;;;;;;;;5031600;28;20025;-85
2023/04/15 14:06:49;;;;;;;3.75;1.40;;;;;;;;;;5041132;28;20026;-86
2023/04/15 14:09:15;;;;;;;2.78;1.30;;;;;;;;;;5032897;28;20038;-85
2023/04/15 14:11:41;;;;;;;2.40;1.30;;;;;;;;;;5037553;28;20029;-86
2023/04/15 14:14:07;;;;;;;4.32;1.60;;;;;;;;;;5037409;28;20069;-85
2023/04/15 14:16:33;;;;;;;2.78;1.10;;;;;;;;;;5041241;28;20033;-84
2023/04/15 14:18:59;;;;;;;2.45;1.00;;;;;;;;;;5038782;28;20022;-85
2023/04/15 14:21:27;;;;;;;5.82;1.42;;;;;;;;;;5039600;28;20021;-82
2023/04/15 14:23:53;;;;;;;5.57;1.10;;;;;;;;;;5040029;28;20025;-82
2023/04/15 14:26:19;;;;;;;3.13;1.27;;;;;;;;;;5039533;28;20029;-86
2023/04/15 14:28:45;;;;;;;3.70;1.60;;;;;;;;;;5041080;28;20033;-85
2023/04/15 14:31:11;;;;;;;3.85;1.20;;;;;;;;;;5035267;28;20029;-86
2023/04/15 14:33:37;;;;;;;2.65;1.10;;;;;;;;;;5038477;28;20473;-87
2023/04/15 14:36:03;;;;;;;4.00;1.38;;;;;;;;;;5041280;28;20107;-84
2023/04/15 14:38:29;;;;;;;3.08;1.10;;;;;;;;;;5040227;28;20025;-86
2023/04/15 14:40:55;;;;;;;3.35;1.20;;;;;;;;;;5037143;28;20097;-86
2023/04/15 14:43:21;;;;;;;3.95;1.50;;;;;;;;;;5038652;28;20033;-85
2023/04/15 14:45:47;;;;;;;3.20;1.17;;;;;;;;;;5034975;28;20025;-82
2023/04/15 14:48:13;;;;;;;2.20;1.20;;;;;;;;;;5033247;28;20564;-87
2023/04/15 14:50:40;;;;;;;3.33;1.10;;;;;;;;;;5042335;28;20037;-85
2023/04/15 14:53:06;;;;;;;3.60;1.65;;;;;;;;;;5036002;28;20056;-84
2023/04/15 14:55:35;;;;;;;2.17;1.10;;;;;;;;;;5035526;28;20049;-85
2023/04/15 14:58:01;;;;;;;2.63;1.20;;;;;;;;;;5043119;28;20032;-86
2023/04/15 15:00:27;;;;;;;3.22;1.27;;;;;;;;;;5026394;28;20025;-85
2023/04/15 15:02:53;;;;;;;4.18;2.15;;;;;;;;;;5032108;28;20038;-86
2023/04/15 15:05:19;;;;;;;2.63;1.40;;;;;;;;;;5035130;28;20106;-83
2023/04/15 16:07:20;;;;;;;3.47;1.60;;;;;;;;;;5033582;28;20052;-90
2023/04/15 16:09:46;;;;;;;2.75;1.70;;;;;;;;;;5021703;28;20033;-90
2023/04/15 16:12:12;;;;;;;3.33;1.55;;;;;;;;;;5020622;28;20030;-87
2023/04/15 16:14:38;;;;;;;4.68;1.48;;;;;;;;;;5023140;28;20026;-86
2023/04/15 16:17:07;;;;;;;2.33;1.70;;;;;;;;;;5042341;28;20847;-89
2023/04/15 16:19:33;;;;;;;3.40;1.70;;;;;;;;;;5022696;28;20024;-89
2023/04/15 16:22:00;;;;;;;5.10;1.65;;;;;;;;;;5040163;28;20040;-88
2023/04/15 16:24:27;;;;;;;3.95;1.80;;;;;;;;;;5020630;28;20021;-87
2023/04/15 16:26:53;;;;;;;2.83;1.70;;;;;;;;;;5020758;28;20609;-88
2023/04/15 16:29:19;;;;;;;3.40;1.92;;;;;;;;;;5008343;28;20064;-89
2023/04/15 16:31:46;;;;;;;4.35;2.10;;;;;;;;;;5007240;28;20033;-86
2023/04/15 16:34:14;;;;;;;4.53;2.20;;;;;;;;;;5012967;28;20053;-87
2023/04/15 16:36:40;;;;;;;5.50;2.75;;;;;;;;;;5035255;28;20085;-88
2023/04/15 16:39:06;;;;;;;3.28;2.35;;;;;;;;;;5034721;28;20064;-88
2023/04/15 16:41:33;;;;;;;3.25;2.30;;;;;;;;;;5012225;28;20110;-88
2023/04/15 16:44:00;;;;;;;3.60;2.50;;;;;;;;;;5017992;28;20025;-85
2023/04/15 16:46:28;;;;;;;3.75;2.50;;;;;;;;;;5020143;28;20026;-87
2023/04/15 16:48:54;;;;;;;3.85;2.88;;;;;;;;;;5018876;28;20034;-86
2023/04/15 16:51:20;;;;;;;5.72;4.28;;;;;;;;;;5014275;28;20055;-86
2023/04/15 16:53:46;;;;;;;4.07;3.35;;;;;;;;;;5017067;28;20037;-87
2023/04/15 16:56:12;;;;;;;3.30;2.90;;;;;;;;;;5030429;28;20029;-87
2023/04/15 16:58:38;;;;;;;2.90;2.60;;;;;;;;;;5031473;28;20026;-87
2023/04/15 17:01:04;;;;;;;5.03;3.50;;;;;;;;;;5031188;28;20056;-85
2023/04/15 17:03:30;;;;;;;3.58;3.05;;;;;;;;;;5011856;28;20455;-85
2023/04/15 17:05:56;;;;;;;3.55;3.25;;;;;;;;;;5012412;28;20029;-87
2023/04/15 17:08:22;;;;;;;4.47;3.50;;;;;;;;;;5000928;28;20156;-89
2023/04/15 17:10:50;;;;;;;4.38;3.00;;;;;;;;;;5009358;28;20101;-87
2023/04/15 17:13:19;;;;;;;3.83;3.42;;;;;;;;;;5014559;28;20104;-86
2023/04/15 17:15:45;;;;;;;4.40;3.63;;;;;;;;;;5029285;28;20431;-85
2023/04/15 17:18:11;;;;;;;5.88;4.13;;;;;;;;;;5015767;28;20098;-87
2023/04/15 17:20:38;;;;;;;4.22;3.83;;;;;;;;;;5012945;28;20060;-86
2023/04/15 17:23:04;;;;;;;4.45;3.90;;;;;;;;;;5009366;28;20080;-86
2023/04/15 17:25:30;;;;;;;4.43;4.00;;;;;;;;;;5033325;28;20033;-86
2023/04/15 17:27:56;;;;;;;4.40;3.45;;;;;;;;;;5015744;28;20308;-87
2023/04/15 17:30:22;;;;;;;4.22;3.47;;;;;;;;;;5033779;28;20033;-89
2023/04/15 17:32:48;;;;;;;5.35;3.58;;;;;;;;;;5017442;28;20033;-88
2023/04/15 17:35:15;;;;;;;8.68;5.88;;;;;;;;;;5016311;28;20116;-88
2023/04/15 17:37:41;;;;;;;4.25;3.70;;;;;;;;;;5013343;28;20395;-88
2023/04/15 17:40:07;;;;;;;4.55;3.65;;;;;;;;;;5012318;28;20105;-89
2023/04/15 17:42:33;;;;;;;7.47;4.35;;;;;;;;;;5012194;28;20018;-88
2023/04/15 17:44:59;;;;;;;5.65;4.40;;;;;;;;;;5016298;28;20029;-87
2023/04/15 17:47:25;;;;;;;5.38;4.00;;;;;;;;;;5019336;28;20062;-87
2023/04/15 17:49:51;;;;;;;5.95;3.90;;;;;;;;;;5022307;28;20293;-86
2023/04/15 17:52:17;;;;;;;4.72;3.55;;;;;;;;;;5020415;28;20033;-86
2023/04/15 17:54:43;;;;;;;4.50;3.50;;;;;;;;;;5019949;28;20022;-85
2023/04/15 17:57:09;;;;;;;5.18;3.50;;;;;;;;;;5041725;28;20041;-87
2023/04/15 17:59:35;;;;;;;6.35;3.42;;;;;;;;;;5022343;28;20026;-86
2023/04/15 18:02:01;;;;;;;4.30;3.03;;;;;;;;;;5025790;28;20040;-85
2023/04/15 18:04:27;;;;;;;4.22;3.03;;;;;;;;;;5042539;28;20013;-87
2023/04/15 18:06:54;;;;;;;4.13;3.03;;;;;;;;;;5034021;28;20053;-87
2023/04/15 18:09:20;;;;;;;5.13;3.33;;;;;;;;;;5016054;28;20029;-84
2023/04/15 18:11:47;;;;;;;3.80;2.85;;;;;;;;;;5023334;28;20117;-85
2023/04/15 18:14:13;;;;;;;5.03;3.08;;;;;;;;;;5021010;28;20036;-86
2023/04/15 18:16:41;;;;;;;3.25;2.45;;;;;;;;;;5019096;28;20034;-87
2023/04/15 18:19:07;;;;;;;2.97;2.30;;;;;;;;;;5024049;28;20041;-83
2023/04/15 18:21:33;;;;;;;3.78;2.33;;;;;;;;;;5018956;28;20506;-85
2023/04/15 18:23:59;;;;;;;4.57;2.53;;;;;;;;;;5020050;28;20029;-88